Weather at Tucson International Airport / Morris Air National Guard Base

Public forecast

Using degrees Fahrenheit for public forecast. Weather courtesy of forecast.io.

Current aviation weather report (METAR) for Tucson International Airport / Morris Air National Guard Base

Retrieved 2021/01/28 12:53 UTC (60 minutes ago):

KTUS 281253Z 13016KT 10SM CLR 11/M03 A3008 RMK AO2 SLP168 T01111033

Aviation forecast (TAF) for Tucson International Airport / Morris Air National Guard Base

Retrieved 2021/01/28 12:22 UTC (2 hours ago):

TAF KTUS 281120Z 2812/2912 12015G25KT P6SM BKN200 FM282000 10010KT P6SM BKN200